Homeworth, Ohio
Current Conditions -  °F | °C
As of 2:51 PM on Wednesday 26 Nov 2014 (Local Time) from KCAK Reporting Station
Broken Clouds Broken Clouds  
Wind Chill: 33°   Ceiling: 22000
Heat Index: 39°   Visibility: 10mi
Dew Point: 26°   Wind: 8mph
Humidity: 60%   Direction: 310°NW
Pressure: 30.01"   Gusts: NA
Location:  40.84°N, 81.07°W
Report Text: KCAK 261951Z 31007KT 10SM SCT034 SCT150 BKN220 04/M03 A3001 RMK AO2 SLP171 T00391033
Loading
Personal Weather Stations






























Interactive Weather Map New forecast layout! Learn more

10-Day Weather Forecast

Advertisements
Track Severe Weather on mobile